CheckWX is a tool to help pilots better visualize weather data.  It is not intended as a substitute for an official pre-flight weather briefing.

19:00:28 UTC

CYBR TAF
Brandon Municipal Airport
Brandon, Canada
TAF CYBR 191738Z 1918/2006 14010KT P6SM SCT050 FM192000 13010KT P6SM BKN080 TEMPO 1920/2002 P6SM -SHRA BKN050 BECMG 1922/1924 24008KT FM200200 VRB03KT P6SM SCT060 TEMPO 2002/2006 BKN060 RMK NXT FCST BY 200000Z

Jun-19@
18:00 UTC

Jun-19 @ 18:00 UTC

Jun-19@
20:00 UTC

Jun-19 @ 20:00 UTC

TAF CYBR 191738Z 1918/2006 14010KT P6SM SCT050
Wind
  • 140° at 10 KTS
Cloud Levels
  • Scattered at 5,000' AGL

Jun-19@
20:00 UTC

Jun-19 @ 20:00 UTC

Jun-19@
22:00 UTC

Jun-19 @ 22:00 UTC

FM192000 13010KT P6SM BKN080

From

From Standard forecast or significant change

Wind
  • 130° at 10 KTS
Cloud Levels
  • Broken at 8,000' AGL

Jun-19@
20:00 UTC

Jun-19 @ 20:00 UTC

Jun-20@
02:00 UTC

Jun-20 @ 02:00 UTC

TEMPO 1920/2002 P6SM -SHRA BKN050

Temporary

Temporary Changes expected for less than half the time period

Conditions
Light Rain
Cloud Levels
  • Broken at 5,000' AGL

Jun-19@
22:00 UTC

Jun-19 @ 22:00 UTC

Jun-20@
02:00 UTC

Jun-20 @ 02:00 UTC

BECMG 1922/1924 24008KT

Becoming

Becoming Conditions expected by Thu, Jun 20, 2019 @ 00:00 UTC

Wind
  • 240° at 8 KTS
Cloud Levels
  • Broken at 8,000' AGL

Jun-20@
02:00 UTC

Jun-20 @ 02:00 UTC

Jun-20@
06:00 UTC

Jun-20 @ 06:00 UTC

TEMPO 2002/2006 BKN060 RMK NXT FCST BY 200000Z

Temporary

Temporary Changes expected for less than half the time period

Cloud Levels
  • Broken at 6,000' AGL

Jun-20@
02:00 UTC

Jun-20 @ 02:00 UTC

Jun-20@
06:00 UTC

Jun-20 @ 06:00 UTC

FM200200 VRB03KT P6SM SCT060

From

From Standard forecast or significant change

Wind
  • Variable at 3 KTS
Cloud Levels
  • Scattered at 6,000' AGL